createdAt,value
2018-07-13T00:01:36.271Z,102283.97
2018-07-13T00:04:07.911Z,102285.03
2018-07-13T00:06:40.205Z,102281.64
2018-07-13T00:09:10.881Z,102282.67
2018-07-13T00:11:40.349Z,102285.56
2018-07-13T00:14:16.250Z,102280.38
2018-07-13T00:16:48.226Z,102282.62
2018-07-13T00:19:23.780Z,102284.15
2018-07-13T00:21:59.930Z,102282.61
2018-07-13T01:24:41.346Z,102293.00
2018-07-13T01:27:13.971Z,102284.56
2018-07-13T01:29:45.371Z,102282.11
2018-07-13T01:32:19.026Z,102282.34
2018-07-13T01:34:50.357Z,102282.17
2018-07-13T01:37:19.362Z,102281.14
2018-07-13T01:39:48.166Z,102280.11
2018-07-13T01:42:17.125Z,102272.49
2018-07-13T01:44:50.188Z,102265.44
2018-07-13T01:47:22.415Z,102266.36
2018-07-13T01:49:54.220Z,102273.81
2018-07-13T01:52:24.362Z,102264.11
2018-07-13T01:54:53.126Z,102269.56
2018-07-13T01:57:21.923Z,102270.09
2018-07-13T01:59:50.898Z,102268.98
2018-07-13T02:02:21.643Z,102271.85
2018-07-13T02:04:56.608Z,102277.06
2018-07-13T02:07:28.565Z,102275.74
2018-07-13T02:09:58.615Z,102272.31
2018-07-13T02:12:27.350Z,102272.31
2018-07-13T02:14:56.131Z,102266.97
2018-07-13T02:17:25.051Z,102272.31
2018-07-13T02:19:55.290Z,102265.25
2018-07-13T02:22:26.447Z,102266.21
2018-07-13T02:24:57.338Z,102260.77
2018-07-13T02:27:30.088Z,102260.86
2018-07-13T02:29:58.840Z,102259.86
2018-07-13T02:32:27.644Z,102259.20
2018-07-13T02:34:56.486Z,102262.12
2018-07-13T02:37:29.675Z,102257.24
2018-07-13T02:40:01.677Z,102257.24
2018-07-13T02:42:36.390Z,102257.43
2018-07-13T02:45:10.143Z,102257.26
2018-07-13T02:47:38.891Z,102261.15
2018-07-13T02:50:08.776Z,102257.94
2018-07-13T02:52:37.570Z,102259.66
2018-07-13T02:55:09.546Z,102261.80
2018-07-13T02:57:41.883Z,102271.36
2018-07-13T03:00:14.022Z,102268.33
2018-07-13T03:02:46.674Z,102262.83
2018-07-13T03:05:15.490Z,102268.50
2018-07-13T03:07:44.280Z,102267.28
2018-07-13T03:10:13.319Z,102263.69
2018-07-13T03:12:46.327Z,102273.31
2018-07-13T03:15:18.071Z,102275.85
2018-07-13T03:17:52.183Z,102275.66
2018-07-13T03:20:22.620Z,102284.44
2018-07-13T03:22:51.495Z,102272.92
2018-07-13T03:25:20.266Z,102278.20
2018-07-13T03:27:49.278Z,102275.56
2018-07-13T03:30:21.085Z,102273.02
2018-07-13T03:32:53.850Z,102269.63
2018-07-13T03:35:25.174Z,102271.66
2018-07-13T03:37:55.195Z,102281.45
2018-07-13T03:40:23.992Z,102281.17
2018-07-13T03:42:52.802Z,102271.64
2018-07-13T03:45:21.682Z,102271.24
2018-07-13T03:47:53.099Z,102277.55
2018-07-13T03:50:25.096Z,102276.39
2018-07-13T03:52:57.242Z,102278.38
2018-07-13T03:55:29.258Z,102274.59
2018-07-13T03:57:58.067Z,102277.98
2018-07-13T04:00:26.967Z,102277.06
2018-07-13T04:02:55.887Z,102279.89
2018-07-13T04:05:26.128Z,102273.59
2018-07-13T04:07:57.236Z,102277.31
2018-07-13T04:10:27.437Z,102276.34
2018-07-13T04:12:58.138Z,102269.56
2018-07-13T04:15:26.926Z,102271.80
2018-07-13T04:17:55.729Z,102277.55
2018-07-13T04:20:24.674Z,102280.28
2018-07-13T04:22:55.462Z,102267.16
2018-07-13T04:25:29.032Z,102276.39
2018-07-13T04:28:01.095Z,102280.75
2018-07-13T04:30:30.076Z,102279.03
2018-07-13T04:32:58.978Z,102277.81
2018-07-13T04:35:27.829Z,102278.38
2018-07-13T04:37:56.663Z,102280.23
2018-07-13T04:40:30.015Z,102277.80
2018-07-13T04:43:01.122Z,102276.54
2018-07-13T04:45:33.889Z,102275.62
2018-07-13T04:48:03.043Z,102275.16
2018-07-13T04:50:31.901Z,102272.88
2018-07-13T04:53:01.253Z,102281.19
2018-07-13T04:55:30.567Z,102280.23
2018-07-13T04:58:01.821Z,102279.30
2018-07-13T05:00:34.315Z,102281.48
2018-07-13T05:03:06.127Z,102278.38
2018-07-13T05:05:35.070Z,102278.73
2018-07-13T05:08:03.942Z,102283.48
2018-07-13T05:10:32.811Z,102281.37
2018-07-13T05:13:02.020Z,102273.73
2018-07-13T05:15:33.123Z,102282.67
2018-07-13T05:18:09.114Z,102273.21
2018-07-13T05:20:39.159Z,102277.10
2018-07-13T05:23:09.102Z,102279.11
2018-07-13T05:25:38.040Z,102279.47
2018-07-13T05:28:07.274Z,102282.28
2018-07-13T05:30:36.560Z,102277.17
2018-07-13T05:33:09.183Z,102275.69
2018-07-13T05:35:39.176Z,102276.08
2018-07-13T05:38:10.303Z,102280.43
2018-07-13T05:40:39.256Z,102282.97
2018-07-13T05:43:08.286Z,102284.98
2018-07-13T05:45:37.240Z,102279.14
2018-07-13T05:48:10.291Z,102286.88
2018-07-13T05:50:45.095Z,102291.59
2018-07-13T05:53:17.066Z,102291.99
2018-07-13T05:55:50.152Z,102291.59
2018-07-13T05:58:19.080Z,102288.66
2018-07-13T06:00:48.068Z,102290.84
2018-07-13T06:03:17.103Z,102289.52
2018-07-13T06:05:47.019Z,102288.38
2018-07-13T06:08:21.449Z,102292.72
2018-07-13T06:10:54.806Z,102289.00
2018-07-13T06:13:25.738Z,102299.72
2018-07-13T06:15:54.511Z,102304.54
2018-07-13T06:18:23.346Z,102302.30
2018-07-13T06:20:52.190Z,102303.98
2018-07-13T06:23:22.296Z,102305.98
2018-07-13T06:25:54.942Z,102307.60
2018-07-13T06:28:25.433Z,102306.67
2018-07-13T06:30:54.286Z,102309.05
2018-07-13T06:33:23.096Z,102309.27
2018-07-13T06:35:51.954Z,102310.53
2018-07-13T06:38:20.966Z,102309.78
2018-07-13T06:40:53.608Z,102310.80
2018-07-13T06:43:26.415Z,102310.70
2018-07-13T06:46:02.123Z,102310.47
2018-07-13T06:48:30.914Z,102309.91
2018-07-13T06:50:59.727Z,102305.31
2018-07-13T06:53:28.594Z,102310.72
2018-07-13T06:55:58.054Z,102303.55
2018-07-13T06:58:38.959Z,102309.81
2018-07-13T07:01:13.285Z,102305.28
2018-07-13T07:06:13.002Z,102315.74
2018-07-13T07:08:45.519Z,102321.13
2018-07-13T07:11:14.442Z,102316.04
2018-07-13T07:13:45.013Z,102323.33
2018-07-13T07:16:21.402Z,102320.95
2018-07-13T07:18:54.701Z,102316.53
2018-07-13T07:21:28.870Z,102319.75
2018-07-13T07:23:57.748Z,102320.94
2018-07-13T07:26:26.667Z,102324.94
2018-07-13T07:28:55.458Z,102326.26
2018-07-13T07:31:25.010Z,102326.42
2018-07-13T07:33:58.071Z,102325.03
2018-07-13T07:36:32.943Z,102317.97
2018-07-13T07:39:06.331Z,102319.52
2018-07-13T07:41:35.196Z,102320.20
2018-07-13T07:44:05.888Z,102316.06
2018-07-13T07:46:37.518Z,102318.43
2018-07-13T07:49:06.419Z,102319.58
2018-07-13T07:51:39.018Z,102322.05
2018-07-13T07:54:10.912Z,102313.66
2018-07-13T07:56:42.871Z,102312.23
2018-07-13T07:59:11.691Z,102316.41
2018-07-13T08:01:40.550Z,102318.84
2018-07-13T08:04:09.334Z,102317.05
2018-07-13T08:06:38.747Z,102321.30
2018-07-13T08:09:10.834Z,102316.02
2018-07-13T08:14:15.005Z,102324.58
2018-07-13T08:16:43.625Z,102323.37
2018-07-13T08:19:12.493Z,102322.86
2018-07-13T08:21:43.065Z,102329.09
2018-07-13T08:36:23.162Z,102319.67
2018-07-13T08:38:52.272Z,102319.97
2018-07-13T08:41:21.395Z,102320.21
2018-07-13T08:52:59.534Z,102318.41
2018-07-13T08:55:28.717Z,102317.45
2018-07-13T08:57:57.824Z,102322.19
2018-07-13T09:09:36.100Z,102318.90
2018-07-13T09:12:05.083Z,102321.91
2018-07-13T09:14:34.083Z,102326.17
2018-07-13T09:26:11.932Z,102325.36
2018-07-13T09:28:40.942Z,102318.89
2018-07-13T09:31:10.958Z,102324.73
2018-07-13T09:43:08.059Z,102327.95
2018-07-13T09:45:37.081Z,102321.07
2018-07-13T09:48:05.992Z,102322.23
2018-07-13T09:50:35.389Z,102320.46
2018-07-13T10:02:12.035Z,102330.36
2018-07-13T10:04:41.073Z,102325.02
2018-07-13T10:07:10.070Z,102323.27
2018-07-13T10:18:47.467Z,102320.92
2018-07-13T10:21:16.759Z,102318.06
2018-07-13T10:23:46.219Z,102314.87
2018-07-13T10:35:22.907Z,102310.46
2018-07-13T10:37:51.870Z,102320.56
2018-07-13T10:40:20.758Z,102314.52
2018-07-13T10:51:58.588Z,102313.03
2018-07-13T10:54:27.606Z,102321.50
2018-07-13T10:56:56.719Z,102321.34
2018-07-13T10:59:26.865Z,102319.28
2018-07-13T11:11:04.279Z,102317.61
2018-07-13T11:13:33.296Z,102313.80
2018-07-13T11:16:02.591Z,102310.53
2018-07-13T11:27:40.899Z,102300.48
2018-07-13T11:30:09.909Z,102300.20
2018-07-13T11:32:39.004Z,102301.05
2018-07-13T11:44:16.492Z,102284.02
2018-07-13T11:46:45.398Z,102293.50
2018-07-13T11:49:14.462Z,102287.95
2018-07-13T12:00:51.939Z,102287.89
2018-07-13T12:03:21.256Z,102285.99
2018-07-13T12:05:50.222Z,102283.06
2018-07-13T12:19:56.648Z,102281.41
2018-07-13T12:22:25.590Z,102279.83
2018-07-13T12:34:19.195Z,102281.52
2018-07-13T12:36:48.335Z,102273.94
2018-07-13T12:39:17.430Z,102263.53
2018-07-13T12:41:47.507Z,102274.04
2018-07-13T12:53:25.011Z,102272.80
2018-07-13T12:55:54.010Z,102273.89
2018-07-13T12:58:23.286Z,102278.24
2018-07-13T13:09:53.203Z,102287.92
2018-07-13T13:12:22.123Z,102298.09
2018-07-13T13:14:51.108Z,102294.86
2018-07-13T13:26:28.747Z,102301.22
2018-07-13T13:28:57.978Z,102300.13
2018-07-13T13:31:27.897Z,102295.89
2018-07-13T13:43:04.954Z,102300.06
2018-07-13T13:45:34.587Z,102290.42
2018-07-13T13:48:03.667Z,102293.58
2018-07-13T13:59:50.509Z,102289.72
2018-07-13T14:02:19.587Z,102293.34
2018-07-13T14:04:48.706Z,102280.29
2018-07-13T14:07:21.973Z,102283.33
2018-07-13T14:18:58.898Z,102273.53
2018-07-13T14:21:28.095Z,102282.37
2018-07-13T14:23:57.318Z,102260.11
2018-07-13T14:35:34.233Z,102256.27
2018-07-13T14:38:03.112Z,102252.49
2018-07-13T14:40:33.066Z,102251.01
2018-07-13T14:52:10.638Z,102246.45
2018-07-13T14:54:39.552Z,102247.59
2018-07-13T14:57:08.519Z,102247.42
2018-07-13T15:11:44.188Z,102254.69
2018-07-13T15:14:12.983Z,102250.73
2018-07-13T15:16:41.874Z,102253.54
2018-07-13T15:19:17.971Z,102244.54
2018-07-13T15:21:51.234Z,102239.61
2018-07-13T15:24:22.204Z,102242.05
2018-07-13T15:26:54.600Z,102255.14
2018-07-13T15:29:23.355Z,102232.75
2018-07-13T15:31:52.129Z,102240.68
2018-07-13T15:34:21.010Z,102234.91
2018-07-13T15:37:02.634Z,102237.31
2018-07-13T15:45:42.858Z,102245.69
2018-07-13T15:48:11.611Z,102238.30
2018-07-13T15:50:40.558Z,102236.55
2018-07-13T15:53:09.483Z,102228.98
2018-07-13T16:06:45.268Z,102230.05
2018-07-13T16:09:14.123Z,102239.34
2018-07-13T16:11:43.001Z,102233.41
2018-07-13T16:14:13.227Z,102234.31
2018-07-13T16:16:46.065Z,102230.91
2018-07-13T16:19:21.432Z,102226.22
2018-07-13T16:21:51.319Z,102230.37
2018-07-13T16:24:21.542Z,102234.84
2018-07-13T16:26:50.402Z,102220.37
2018-07-13T16:29:19.251Z,102227.63
2018-07-13T16:31:50.107Z,102220.66
2018-07-13T16:34:25.987Z,102226.30
2018-07-13T16:36:57.455Z,102219.59
2018-07-13T16:39:33.080Z,102224.30
2018-07-13T16:42:02.059Z,102231.88
2018-07-13T16:44:31.226Z,102224.80
2018-07-13T16:47:01.087Z,102225.95
2018-07-13T16:58:38.506Z,102227.30
2018-07-13T17:01:07.767Z,102227.89
2018-07-13T17:03:36.886Z,102228.87
2018-07-13T17:06:06.236Z,102227.66
2018-07-13T17:18:00.854Z,102227.28
2018-07-13T17:20:29.984Z,102227.19
2018-07-13T17:22:58.887Z,102225.38
2018-07-13T17:25:28.234Z,102224.66
2018-07-13T17:43:11.048Z,102217.09
2018-07-13T17:45:39.999Z,102220.20
2018-07-13T17:48:08.992Z,102216.47
2018-07-13T18:05:51.747Z,102232.55
2018-07-13T18:08:21.631Z,102227.39
2018-07-13T18:10:51.156Z,102230.36
2018-07-13T18:25:46.892Z,102233.22
2018-07-13T18:28:16.098Z,102229.25
2018-07-13T18:30:44.940Z,102228.60
2018-07-13T18:33:14.803Z,102235.09
2018-07-13T18:44:52.065Z,102227.51
2018-07-13T18:47:21.180Z,102232.63
2018-07-13T18:49:50.063Z,102226.14
2018-07-13T19:01:34.807Z,102227.80
2018-07-13T19:04:03.798Z,102224.84
2018-07-13T19:06:33.433Z,102228.70
2018-07-13T19:21:35.223Z,102232.91
2018-07-13T19:24:04.300Z,102238.53
2018-07-13T19:38:53.073Z,102235.95
2018-07-13T19:41:22.113Z,102239.75
2018-07-13T19:43:51.189Z,102236.27
2018-07-13T19:55:28.750Z,102246.86
2018-07-13T19:57:57.768Z,102241.08
2018-07-13T20:00:26.786Z,102239.57
2018-07-13T20:15:03.144Z,102245.07
2018-07-13T20:17:32.126Z,102253.16
2018-07-13T20:20:01.158Z,102251.34
2018-07-13T20:37:56.879Z,102281.56
2018-07-13T20:40:33.416Z,102278.37
2018-07-13T20:43:02.580Z,102275.71
2018-07-13T20:54:40.960Z,102281.01
2018-07-13T20:57:10.055Z,102285.81
2018-07-13T20:59:39.444Z,102285.34
2018-07-13T21:14:38.211Z,102286.43
2018-07-13T21:17:07.402Z,102291.50
2018-07-13T21:19:36.643Z,102294.64
2018-07-13T21:31:13.744Z,102283.00
2018-07-13T21:33:42.938Z,102290.93
2018-07-13T21:36:11.835Z,102294.61
2018-07-13T21:50:48.277Z,102299.54
2018-07-13T21:53:17.301Z,102290.57
2018-07-13T21:55:48.419Z,102288.53
2018-07-13T22:07:26.363Z,102294.14
2018-07-13T22:09:55.186Z,102295.07
2018-07-13T22:12:24.135Z,102290.75
2018-07-13T22:24:00.947Z,102301.81
2018-07-13T22:26:30.837Z,102296.61
2018-07-13T22:28:59.750Z,102297.10
2018-07-13T22:40:36.783Z,102304.11
2018-07-13T22:43:05.765Z,102293.35
2018-07-13T22:45:34.679Z,102291.81
2018-07-13T22:48:03.988Z,102294.16
2018-07-13T22:59:41.067Z,102297.52
2018-07-13T23:02:10.003Z,102295.64
2018-07-13T23:04:38.952Z,102294.81
2018-07-13T23:16:16.475Z,102287.47
2018-07-13T23:18:45.423Z,102293.30
2018-07-13T23:21:14.454Z,102294.78
2018-07-13T23:32:36.982Z,102286.27
2018-07-13T23:35:06.254Z,102288.91
2018-07-13T23:37:35.679Z,102288.91
2018-07-13T23:40:12.083Z,102292.92
2018-07-13T23:51:49.552Z,102286.67
2018-07-13T23:54:18.576Z,102287.30
2018-07-13T23:56:47.519Z,102285.77
